sensor_id;sensor_type;location;lat;lon;timestamp;P1;durP1;ratioP1;P2;durP2;ratioP2
57461;SDS011;43308;47.306;8.608;2024-02-16T00:00:17;4.57;;;3.65;;
57461;SDS011;43308;47.306;8.608;2024-02-16T00:02:44;8.07;;;3.47;;
57461;SDS011;43308;47.306;8.608;2024-02-16T00:05:11;6.32;;;3.30;;
57461;SDS011;43308;47.306;8.608;2024-02-16T00:07:38;3.63;;;2.47;;
57461;SDS011;43308;47.306;8.608;2024-02-16T00:10:04;3.83;;;2.28;;
57461;SDS011;43308;47.306;8.608;2024-02-16T00:12:32;3.50;;;2.70;;
57461;SDS011;43308;47.306;8.608;2024-02-16T00:14:58;3.38;;;2.45;;
57461;SDS011;43308;47.306;8.608;2024-02-16T00:17:25;3.22;;;2.70;;
57461;SDS011;43308;47.306;8.608;2024-02-16T00:19:54;3.67;;;3.05;;
57461;SDS011;43308;47.306;8.608;2024-02-16T00:22:22;4.25;;;3.55;;
57461;SDS011;43308;47.306;8.608;2024-02-16T00:24:47;3.50;;;2.97;;
57461;SDS011;43308;47.306;8.608;2024-02-16T00:27:14;6.28;;;2.88;;
57461;SDS011;43308;47.306;8.608;2024-02-16T00:29:40;2.70;;;2.50;;
57461;SDS011;43308;47.306;8.608;2024-02-16T00:32:07;3.88;;;2.40;;
57461;SDS011;43308;47.306;8.608;2024-02-16T00:34:34;3.63;;;2.90;;
57461;SDS011;43308;47.306;8.608;2024-02-16T00:37:02;2.33;;;1.75;;
57461;SDS011;43308;47.306;8.608;2024-02-16T00:39:30;3.35;;;2.33;;
57461;SDS011;43308;47.306;8.608;2024-02-16T00:41:56;2.25;;;2.05;;
57461;SDS011;43308;47.306;8.608;2024-02-16T00:44:22;6.18;;;3.00;;
57461;SDS011;43308;47.306;8.608;2024-02-16T00:46:48;2.42;;;1.83;;
57461;SDS011;43308;47.306;8.608;2024-02-16T00:49:14;2.95;;;2.08;;
57461;SDS011;43308;47.306;8.608;2024-02-16T00:51:40;4.15;;;2.50;;
57461;SDS011;43308;47.306;8.608;2024-02-16T00:54:06;3.85;;;3.47;;
57461;SDS011;43308;47.306;8.608;2024-02-16T00:56:32;6.03;;;4.00;;
57461;SDS011;43308;47.306;8.608;2024-02-16T00:58:58;5.00;;;4.45;;
57461;SDS011;43308;47.306;8.608;2024-02-16T01:01:25;3.97;;;3.55;;
57461;SDS011;43308;47.306;8.608;2024-02-16T01:03:52;3.20;;;2.90;;
57461;SDS011;43308;47.306;8.608;2024-02-16T01:06:19;3.63;;;3.10;;
57461;SDS011;43308;47.306;8.608;2024-02-16T01:08:45;5.07;;;3.15;;
57461;SDS011;43308;47.306;8.608;2024-02-16T01:11:12;2.63;;;2.42;;
57461;SDS011;43308;47.306;8.608;2024-02-16T01:13:39;3.83;;;3.17;;
57461;SDS011;43308;47.306;8.608;2024-02-16T01:16:06;3.38;;;2.60;;
57461;SDS011;43308;47.306;8.608;2024-02-16T01:18:33;3.80;;;2.60;;
57461;SDS011;43308;47.306;8.608;2024-02-16T01:21:02;5.28;;;2.80;;
57461;SDS011;43308;47.306;8.608;2024-02-16T01:23:29;3.40;;;2.67;;
57461;SDS011;43308;47.306;8.608;2024-02-16T01:25:55;4.90;;;2.55;;
57461;SDS011;43308;47.306;8.608;2024-02-16T01:28:21;3.92;;;2.42;;
57461;SDS011;43308;47.306;8.608;2024-02-16T01:30:48;2.88;;;2.60;;
57461;SDS011;43308;47.306;8.608;2024-02-16T01:33:15;4.18;;;2.72;;
57461;SDS011;43308;47.306;8.608;2024-02-16T01:35:41;4.70;;;2.45;;
57461;SDS011;43308;47.306;8.608;2024-02-16T01:38:07;3.17;;;2.55;;
57461;SDS011;43308;47.306;8.608;2024-02-16T01:40:34;2.83;;;2.10;;
57461;SDS011;43308;47.306;8.608;2024-02-16T01:43:00;2.35;;;1.92;;
57461;SDS011;43308;47.306;8.608;2024-02-16T01:45:25;2.05;;;1.60;;
57461;SDS011;43308;47.306;8.608;2024-02-16T01:47:52;2.45;;;1.90;;
57461;SDS011;43308;47.306;8.608;2024-02-16T01:50:19;2.60;;;2.20;;
57461;SDS011;43308;47.306;8.608;2024-02-16T01:52:46;2.20;;;1.75;;
57461;SDS011;43308;47.306;8.608;2024-02-16T01:55:13;2.60;;;1.70;;
57461;SDS011;43308;47.306;8.608;2024-02-16T01:57:44;2.20;;;1.90;;
57461;SDS011;43308;47.306;8.608;2024-02-16T02:00:12;2.72;;;1.67;;
57461;SDS011;43308;47.306;8.608;2024-02-16T02:02:40;3.65;;;2.13;;
57461;SDS011;43308;47.306;8.608;2024-02-16T02:05:10;3.03;;;1.92;;
57461;SDS011;43308;47.306;8.608;2024-02-16T02:07:37;1.73;;;1.48;;
57461;SDS011;43308;47.306;8.608;2024-02-16T02:10:03;2.25;;;1.50;;
57461;SDS011;43308;47.306;8.608;2024-02-16T02:12:29;1.70;;;1.48;;
57461;SDS011;43308;47.306;8.608;2024-02-16T02:14:55;5.00;;;2.47;;
57461;SDS011;43308;47.306;8.608;2024-02-16T02:17:22;3.20;;;2.60;;
57461;SDS011;43308;47.306;8.608;2024-02-16T02:19:48;3.55;;;2.15;;
57461;SDS011;43308;47.306;8.608;2024-02-16T02:22:15;1.77;;;1.65;;
57461;SDS011;43308;47.306;8.608;2024-02-16T02:24:43;2.47;;;1.63;;
57461;SDS011;43308;47.306;8.608;2024-02-16T02:27:10;2.60;;;1.55;;
57461;SDS011;43308;47.306;8.608;2024-02-16T02:29:35;4.55;;;1.90;;
57461;SDS011;43308;47.306;8.608;2024-02-16T02:32:01;1.77;;;1.65;;
57461;SDS011;43308;47.306;8.608;2024-02-16T02:34:27;6.18;;;2.00;;
57461;SDS011;43308;47.306;8.608;2024-02-16T02:36:53;4.32;;;2.15;;
57461;SDS011;43308;47.306;8.608;2024-02-16T02:39:19;2.78;;;2.28;;
57461;SDS011;43308;47.306;8.608;2024-02-16T02:41:45;2.45;;;1.98;;
57461;SDS011;43308;47.306;8.608;2024-02-16T02:44:11;3.83;;;1.73;;
57461;SDS011;43308;47.306;8.608;2024-02-16T02:46:37;2.88;;;1.75;;
57461;SDS011;43308;47.306;8.608;2024-02-16T02:49:02;2.58;;;1.77;;
57461;SDS011;43308;47.306;8.608;2024-02-16T02:51:29;2.80;;;2.15;;
57461;SDS011;43308;47.306;8.608;2024-02-16T02:53:55;2.95;;;1.92;;
57461;SDS011;43308;47.306;8.608;2024-02-16T02:56:21;4.30;;;1.90;;
57461;SDS011;43308;47.306;8.608;2024-02-16T02:58:47;3.20;;;1.80;;
57461;SDS011;43308;47.306;8.608;2024-02-16T03:01:13;3.97;;;1.70;;
57461;SDS011;43308;47.306;8.608;2024-02-16T03:03:40;3.60;;;1.80;;
57461;SDS011;43308;47.306;8.608;2024-02-16T03:06:06;3.47;;;2.28;;
57461;SDS011;43308;47.306;8.608;2024-02-16T03:08:33;4.38;;;2.13;;
57461;SDS011;43308;47.306;8.608;2024-02-16T03:10:59;2.75;;;2.00;;
57461;SDS011;43308;47.306;8.608;2024-02-16T03:13:30;4.13;;;3.00;;
57461;SDS011;43308;47.306;8.608;2024-02-16T03:15:57;4.93;;;3.25;;
57461;SDS011;43308;47.306;8.608;2024-02-16T03:18:23;4.32;;;3.47;;
57461;SDS011;43308;47.306;8.608;2024-02-16T03:20:49;3.38;;;3.08;;
57461;SDS011;43308;47.306;8.608;2024-02-16T03:23:16;4.30;;;3.15;;
57461;SDS011;43308;47.306;8.608;2024-02-16T03:25:42;4.40;;;3.60;;
57461;SDS011;43308;47.306;8.608;2024-02-16T03:28:09;3.15;;;2.50;;
57461;SDS011;43308;47.306;8.608;2024-02-16T03:30:37;5.45;;;3.80;;
57461;SDS011;43308;47.306;8.608;2024-02-16T03:33:03;4.15;;;3.75;;
57461;SDS011;43308;47.306;8.608;2024-02-16T03:35:30;4.88;;;3.60;;
57461;SDS011;43308;47.306;8.608;2024-02-16T03:37:55;4.35;;;2.60;;
57461;SDS011;43308;47.306;8.608;2024-02-16T03:40:22;4.72;;;3.45;;
57461;SDS011;43308;47.306;8.608;2024-02-16T03:42:53;4.15;;;3.45;;
57461;SDS011;43308;47.306;8.608;2024-02-16T03:45:19;3.15;;;2.38;;
57461;SDS011;43308;47.306;8.608;2024-02-16T03:47:44;3.15;;;2.40;;
57461;SDS011;43308;47.306;8.608;2024-02-16T03:50:10;4.20;;;2.50;;
57461;SDS011;43308;47.306;8.608;2024-02-16T03:52:37;2.60;;;1.88;;
57461;SDS011;43308;47.306;8.608;2024-02-16T03:55:03;2.72;;;2.38;;
57461;SDS011;43308;47.306;8.608;2024-02-16T03:57:32;3.47;;;2.17;;
57461;SDS011;43308;47.306;8.608;2024-02-16T03:59:58;3.30;;;1.85;;
57461;SDS011;43308;47.306;8.608;2024-02-16T04:02:24;3.80;;;2.10;;
57461;SDS011;43308;47.306;8.608;2024-02-16T04:04:51;2.88;;;2.10;;
57461;SDS011;43308;47.306;8.608;2024-02-16T04:07:17;3.58;;;2.15;;
57461;SDS011;43308;47.306;8.608;2024-02-16T04:09:43;5.15;;;1.85;;
57461;SDS011;43308;47.306;8.608;2024-02-16T04:12:08;2.72;;;1.95;;
57461;SDS011;43308;47.306;8.608;2024-02-16T04:14:36;3.22;;;1.75;;
57461;SDS011;43308;47.306;8.608;2024-02-16T04:17:01;3.88;;;2.00;;
57461;SDS011;43308;47.306;8.608;2024-02-16T04:19:28;5.25;;;2.42;;
57461;SDS011;43308;47.306;8.608;2024-02-16T04:21:54;2.92;;;1.83;;
57461;SDS011;43308;47.306;8.608;2024-02-16T04:24:20;2.58;;;2.38;;
57461;SDS011;43308;47.306;8.608;2024-02-16T04:26:46;2.70;;;2.10;;
57461;SDS011;43308;47.306;8.608;2024-02-16T04:29:12;3.58;;;1.60;;
57461;SDS011;43308;47.306;8.608;2024-02-16T04:31:41;2.42;;;2.20;;
57461;SDS011;43308;47.306;8.608;2024-02-16T04:34:08;4.78;;;2.50;;
57461;SDS011;43308;47.306;8.608;2024-02-16T04:36:34;2.53;;;1.88;;
57461;SDS011;43308;47.306;8.608;2024-02-16T04:39:00;4.05;;;2.42;;
57461;SDS011;43308;47.306;8.608;2024-02-16T04:41:26;2.33;;;1.90;;
57461;SDS011;43308;47.306;8.608;2024-02-16T04:43:52;3.67;;;1.98;;
57461;SDS011;43308;47.306;8.608;2024-02-16T04:46:19;4.68;;;1.85;;
57461;SDS011;43308;47.306;8.608;2024-02-16T04:48:45;3.80;;;2.40;;
57461;SDS011;43308;47.306;8.608;2024-02-16T04:51:11;2.55;;;1.90;;
57461;SDS011;43308;47.306;8.608;2024-02-16T04:53:37;2.08;;;1.88;;
57461;SDS011;43308;47.306;8.608;2024-02-16T04:56:03;3.17;;;2.40;;
57461;SDS011;43308;47.306;8.608;2024-02-16T04:58:30;2.90;;;1.80;;
57461;SDS011;43308;47.306;8.608;2024-02-16T05:00:57;3.83;;;1.95;;
57461;SDS011;43308;47.306;8.608;2024-02-16T05:03:23;2.33;;;1.80;;
57461;SDS011;43308;47.306;8.608;2024-02-16T05:05:49;3.20;;;2.42;;
57461;SDS011;43308;47.306;8.608;2024-02-16T05:08:15;2.10;;;1.40;;
57461;SDS011;43308;47.306;8.608;2024-02-16T05:10:41;2.33;;;1.60;;
57461;SDS011;43308;47.306;8.608;2024-02-16T05:13:07;2.55;;;1.67;;
57461;SDS011;43308;47.306;8.608;2024-02-16T05:15:34;2.10;;;1.33;;
57461;SDS011;43308;47.306;8.608;2024-02-16T05:18:00;1.95;;;1.67;;
57461;SDS011;43308;47.306;8.608;2024-02-16T05:20:26;4.00;;;1.63;;
57461;SDS011;43308;47.306;8.608;2024-02-16T05:22:51;1.90;;;1.70;;
57461;SDS011;43308;47.306;8.608;2024-02-16T05:25:18;1.98;;;1.73;;
57461;SDS011;43308;47.306;8.608;2024-02-16T05:27:45;5.65;;;2.22;;
57461;SDS011;43308;47.306;8.608;2024-02-16T05:30:13;3.13;;;1.38;;
57461;SDS011;43308;47.306;8.608;2024-02-16T05:32:41;3.88;;;1.48;;
57461;SDS011;43308;47.306;8.608;2024-02-16T05:35:08;4.15;;;1.83;;
57461;SDS011;43308;47.306;8.608;2024-02-16T05:37:37;3.30;;;2.53;;
57461;SDS011;43308;47.306;8.608;2024-02-16T05:40:08;1.60;;;1.50;;
57461;SDS011;43308;47.306;8.608;2024-02-16T05:42:45;2.95;;;1.63;;
57461;SDS011;43308;47.306;8.608;2024-02-16T05:45:13;3.08;;;2.78;;
57461;SDS011;43308;47.306;8.608;2024-02-16T05:47:39;1.90;;;1.33;;
57461;SDS011;43308;47.306;8.608;2024-02-16T05:50:05;1.85;;;1.35;;
57461;SDS011;43308;47.306;8.608;2024-02-16T05:52:32;2.03;;;1.58;;
57461;SDS011;43308;47.306;8.608;2024-02-16T05:54:58;2.78;;;1.38;;
57461;SDS011;43308;47.306;8.608;2024-02-16T05:57:24;2.20;;;1.63;;
57461;SDS011;43308;47.306;8.608;2024-02-16T05:59:50;2.80;;;1.80;;
57461;SDS011;43308;47.306;8.608;2024-02-16T06:02:17;2.42;;;1.60;;
57461;SDS011;43308;47.306;8.608;2024-02-16T06:04:43;2.75;;;1.60;;
57461;SDS011;43308;47.306;8.608;2024-02-16T06:07:09;2.72;;;1.50;;
57461;SDS011;43308;47.306;8.608;2024-02-16T06:09:36;1.73;;;1.20;;
57461;SDS011;43308;47.306;8.608;2024-02-16T06:12:03;1.77;;;1.20;;
57461;SDS011;43308;47.306;8.608;2024-02-16T06:14:30;2.38;;;1.45;;
57461;SDS011;43308;47.306;8.608;2024-02-16T06:16:57;2.00;;;1.67;;
57461;SDS011;43308;47.306;8.608;2024-02-16T06:19:23;2.65;;;2.03;;
57461;SDS011;43308;47.306;8.608;2024-02-16T06:21:49;1.35;;;1.10;;
57461;SDS011;43308;47.306;8.608;2024-02-16T06:24:15;2.97;;;1.58;;
57461;SDS011;43308;47.306;8.608;2024-02-16T06:26:41;2.75;;;1.50;;
57461;SDS011;43308;47.306;8.608;2024-02-16T06:29:06;1.15;;;1.02;;
57461;SDS011;43308;47.306;8.608;2024-02-16T06:31:32;1.80;;;1.45;;
57461;SDS011;43308;47.306;8.608;2024-02-16T06:33:58;2.03;;;1.30;;
57461;SDS011;43308;47.306;8.608;2024-02-16T06:36:24;2.30;;;1.60;;
57461;SDS011;43308;47.306;8.608;2024-02-16T06:38:49;7.78;;;2.00;;
57461;SDS011;43308;47.306;8.608;2024-02-16T06:41:17;4.18;;;1.70;;
57461;SDS011;43308;47.306;8.608;2024-02-16T06:43:43;3.00;;;1.92;;
57461;SDS011;43308;47.306;8.608;2024-02-16T06:46:09;3.72;;;1.60;;
57461;SDS011;43308;47.306;8.608;2024-02-16T06:48:35;4.05;;;1.83;;
57461;SDS011;43308;47.306;8.608;2024-02-16T06:51:01;3.85;;;1.85;;
57461;SDS011;43308;47.306;8.608;2024-02-16T06:53:27;1.33;;;1.20;;
57461;SDS011;43308;47.306;8.608;2024-02-16T06:55:53;3.78;;;1.63;;
57461;SDS011;43308;47.306;8.608;2024-02-16T06:58:19;2.13;;;1.40;;
57461;SDS011;43308;47.306;8.608;2024-02-16T07:00:45;1.42;;;1.30;;
57461;SDS011;43308;47.306;8.608;2024-02-16T07:03:12;1.85;;;1.13;;
57461;SDS011;43308;47.306;8.608;2024-02-16T07:05:38;2.38;;;1.30;;
57461;SDS011;43308;47.306;8.608;2024-02-16T07:08:05;2.72;;;1.17;;
57461;SDS011;43308;47.306;8.608;2024-02-16T07:10:33;3.33;;;1.80;;
57461;SDS011;43308;47.306;8.608;2024-02-16T07:12:59;1.33;;;1.10;;
57461;SDS011;43308;47.306;8.608;2024-02-16T07:15:25;1.30;;;0.80;;
57461;SDS011;43308;47.306;8.608;2024-02-16T07:17:52;1.33;;;0.80;;
57461;SDS011;43308;47.306;8.608;2024-02-16T07:20:19;1.08;;;0.70;;
57461;SDS011;43308;47.306;8.608;2024-02-16T07:22:45;0.90;;;0.68;;
57461;SDS011;43308;47.306;8.608;2024-02-16T07:25:17;1.73;;;1.10;;
57461;SDS011;43308;47.306;8.608;2024-02-16T07:27:43;1.23;;;0.75;;
57461;SDS011;43308;47.306;8.608;2024-02-16T07:30:09;1.10;;;0.70;;
57461;SDS011;43308;47.306;8.608;2024-02-16T07:32:38;2.00;;;1.05;;
57461;SDS011;43308;47.306;8.608;2024-02-16T07:35:04;1.52;;;0.98;;
57461;SDS011;43308;47.306;8.608;2024-02-16T07:37:31;1.70;;;0.93;;
57461;SDS011;43308;47.306;8.608;2024-02-16T07:39:58;1.05;;;0.73;;
57461;SDS011;43308;47.306;8.608;2024-02-16T07:42:23;2.10;;;1.23;;
57461;SDS011;43308;47.306;8.608;2024-02-16T07:44:49;1.08;;;0.73;;
57461;SDS011;43308;47.306;8.608;2024-02-16T07:47:16;2.60;;;1.05;;
57461;SDS011;43308;47.306;8.608;2024-02-16T07:49:42;4.38;;;1.42;;
57461;SDS011;43308;47.306;8.608;2024-02-16T07:52:07;1.20;;;0.80;;
57461;SDS011;43308;47.306;8.608;2024-02-16T07:54:34;1.58;;;0.90;;
57461;SDS011;43308;47.306;8.608;2024-02-16T07:57:00;1.17;;;0.82;;
57461;SDS011;43308;47.306;8.608;2024-02-16T07:59:26;1.13;;;0.80;;
57461;SDS011;43308;47.306;8.608;2024-02-16T08:01:52;1.15;;;0.70;;
57461;SDS011;43308;47.306;8.608;2024-02-16T08:04:17;1.45;;;0.85;;
57461;SDS011;43308;47.306;8.608;2024-02-16T08:06:43;1.92;;;1.35;;
57461;SDS011;43308;47.306;8.608;2024-02-16T08:09:09;1.15;;;0.90;;
57461;SDS011;43308;47.306;8.608;2024-02-16T08:11:36;2.67;;;1.05;;
57461;SDS011;43308;47.306;8.608;2024-02-16T08:14:02;2.08;;;0.98;;
57461;SDS011;43308;47.306;8.608;2024-02-16T08:16:28;2.35;;;1.08;;
57461;SDS011;43308;47.306;8.608;2024-02-16T08:18:54;1.63;;;0.90;;
57461;SDS011;43308;47.306;8.608;2024-02-16T08:21:20;8.35;;;2.53;;
57461;SDS011;43308;47.306;8.608;2024-02-16T08:23:46;5.63;;;2.63;;
57461;SDS011;43308;47.306;8.608;2024-02-16T08:26:13;3.47;;;2.35;;
57461;SDS011;43308;47.306;8.608;2024-02-16T08:28:38;3.08;;;2.45;;
57461;SDS011;43308;47.306;8.608;2024-02-16T08:31:05;3.97;;;2.40;;
57461;SDS011;43308;47.306;8.608;2024-02-16T08:33:32;6.13;;;2.38;;
57461;SDS011;43308;47.306;8.608;2024-02-16T08:36:02;5.22;;;2.00;;
57461;SDS011;43308;47.306;8.608;2024-02-16T08:38:31;6.60;;;3.05;;
57461;SDS011;43308;47.306;8.608;2024-02-16T08:40:57;4.97;;;2.35;;
57461;SDS011;43308;47.306;8.608;2024-02-16T08:43:23;5.75;;;2.63;;
57461;SDS011;43308;47.306;8.608;2024-02-16T08:45:48;7.18;;;3.38;;
57461;SDS011;43308;47.306;8.608;2024-02-16T08:48:14;5.78;;;4.25;;
57461;SDS011;43308;47.306;8.608;2024-02-16T08:50:40;5.65;;;3.50;;
57461;SDS011;43308;47.306;8.608;2024-02-16T08:53:06;4.47;;;3.47;;
57461;SDS011;43308;47.306;8.608;2024-02-16T08:55:33;7.10;;;2.92;;
57461;SDS011;43308;47.306;8.608;2024-02-16T08:57:59;2.92;;;2.50;;
57461;SDS011;43308;47.306;8.608;2024-02-16T09:00:25;4.45;;;3.38;;
57461;SDS011;43308;47.306;8.608;2024-02-16T09:02:52;6.65;;;3.97;;
57461;SDS011;43308;47.306;8.608;2024-02-16T09:05:19;5.60;;;3.60;;
57461;SDS011;43308;47.306;8.608;2024-02-16T09:07:45;6.07;;;3.10;;
57461;SDS011;43308;47.306;8.608;2024-02-16T09:10:13;3.40;;;2.15;;
57461;SDS011;43308;47.306;8.608;2024-02-16T09:12:40;3.13;;;2.83;;
57461;SDS011;43308;47.306;8.608;2024-02-16T09:15:07;2.15;;;1.70;;
57461;SDS011;43308;47.306;8.608;2024-02-16T09:17:34;3.70;;;1.80;;
57461;SDS011;43308;47.306;8.608;2024-02-16T09:20:00;1.55;;;1.30;;
57461;SDS011;43308;47.306;8.608;2024-02-16T09:22:26;3.45;;;2.80;;
57461;SDS011;43308;47.306;8.608;2024-02-16T09:24:52;2.65;;;1.45;;
57461;SDS011;43308;47.306;8.608;2024-02-16T09:27:20;2.90;;;1.40;;
57461;SDS011;43308;47.306;8.608;2024-02-16T09:29:47;3.72;;;1.40;;
57461;SDS011;43308;47.306;8.608;2024-02-16T09:32:13;2.60;;;1.38;;
57461;SDS011;43308;47.306;8.608;2024-02-16T09:34:39;1.17;;;1.08;;
57461;SDS011;43308;47.306;8.608;2024-02-16T09:37:05;4.78;;;3.15;;
57461;SDS011;43308;47.306;8.608;2024-02-16T09:39:31;4.22;;;2.90;;
57461;SDS011;43308;47.306;8.608;2024-02-16T09:41:57;5.00;;;2.33;;
57461;SDS011;43308;47.306;8.608;2024-02-16T09:44:23;2.97;;;2.67;;
57461;SDS011;43308;47.306;8.608;2024-02-16T09:46:50;7.82;;;3.95;;
57461;SDS011;43308;47.306;8.608;2024-02-16T09:49:19;4.90;;;3.83;;
57461;SDS011;43308;47.306;8.608;2024-02-16T09:51:45;3.85;;;3.45;;
57461;SDS011;43308;47.306;8.608;2024-02-16T09:54:11;4.70;;;3.65;;
57461;SDS011;43308;47.306;8.608;2024-02-16T09:56:37;4.97;;;3.25;;
57461;SDS011;43308;47.306;8.608;2024-02-16T09:59:03;4.07;;;3.70;;
57461;SDS011;43308;47.306;8.608;2024-02-16T10:01:29;3.55;;;3.25;;
57461;SDS011;43308;47.306;8.608;2024-02-16T10:04:05;4.53;;;3.75;;
57461;SDS011;43308;47.306;8.608;2024-02-16T10:06:45;4.45;;;2.80;;
57461;SDS011;43308;47.306;8.608;2024-02-16T10:09:21;3.20;;;2.80;;
57461;SDS011;43308;47.306;8.608;2024-02-16T10:11:48;2.30;;;2.10;;
57461;SDS011;43308;47.306;8.608;2024-02-16T10:14:14;6.53;;;4.35;;
57461;SDS011;43308;47.306;8.608;2024-02-16T10:16:40;5.63;;;4.15;;
57461;SDS011;43308;47.306;8.608;2024-02-16T10:19:06;6.38;;;3.90;;
57461;SDS011;43308;47.306;8.608;2024-02-16T10:21:33;3.05;;;2.05;;
57461;SDS011;43308;47.306;8.608;2024-02-16T10:24:00;3.55;;;1.52;;
57461;SDS011;43308;47.306;8.608;2024-02-16T10:26:31;2.38;;;1.20;;
57461;SDS011;43308;47.306;8.608;2024-02-16T10:28:57;3.40;;;2.15;;
57461;SDS011;43308;47.306;8.608;2024-02-16T10:31:24;4.18;;;2.00;;
57461;SDS011;43308;47.306;8.608;2024-02-16T10:33:56;3.28;;;1.40;;
57461;SDS011;43308;47.306;8.608;2024-02-16T10:36:23;1.73;;;1.25;;
57461;SDS011;43308;47.306;8.608;2024-02-16T10:38:51;2.50;;;1.17;;
57461;SDS011;43308;47.306;8.608;2024-02-16T10:41:19;3.58;;;1.45;;
57461;SDS011;43308;47.306;8.608;2024-02-16T10:43:48;2.47;;;1.45;;
57461;SDS011;43308;47.306;8.608;2024-02-16T10:46:15;4.10;;;1.85;;
57461;SDS011;43308;47.306;8.608;2024-02-16T10:48:41;5.28;;;3.00;;
57461;SDS011;43308;47.306;8.608;2024-02-16T10:51:08;4.40;;;2.13;;
57461;SDS011;43308;47.306;8.608;2024-02-16T10:53:35;2.75;;;1.88;;
57461;SDS011;43308;47.306;8.608;2024-02-16T10:56:02;2.35;;;1.50;;
57461;SDS011;43308;47.306;8.608;2024-02-16T10:58:28;1.70;;;1.30;;
57461;SDS011;43308;47.306;8.608;2024-02-16T11:00:55;2.53;;;1.58;;
57461;SDS011;43308;47.306;8.608;2024-02-16T11:03:23;2.50;;;1.67;;
57461;SDS011;43308;47.306;8.608;2024-02-16T11:05:50;2.72;;;1.50;;
57461;SDS011;43308;47.306;8.608;2024-02-16T11:08:20;1.73;;;1.10;;
57461;SDS011;43308;47.306;8.608;2024-02-16T11:10:59;2.90;;;1.27;;
57461;SDS011;43308;47.306;8.608;2024-02-16T11:13:27;2.17;;;1.30;;
57461;SDS011;43308;47.306;8.608;2024-02-16T11:15:58;2.53;;;1.60;;
57461;SDS011;43308;47.306;8.608;2024-02-16T11:18:31;3.83;;;1.55;;
57461;SDS011;43308;47.306;8.608;2024-02-16T11:21:02;1.88;;;1.60;;
57461;SDS011;43308;47.306;8.608;2024-02-16T11:23:32;2.95;;;2.17;;
57461;SDS011;43308;47.306;8.608;2024-02-16T11:26:00;2.75;;;1.45;;
57461;SDS011;43308;47.306;8.608;2024-02-16T11:28:33;2.47;;;1.10;;
57461;SDS011;43308;47.306;8.608;2024-02-16T11:31:01;1.95;;;1.33;;
57461;SDS011;43308;47.306;8.608;2024-02-16T11:33:28;3.38;;;1.70;;
57461;SDS011;43308;47.306;8.608;2024-02-16T11:35:58;3.13;;;1.65;;
57461;SDS011;43308;47.306;8.608;2024-02-16T11:38:25;3.15;;;1.40;;
57461;SDS011;43308;47.306;8.608;2024-02-16T11:40:56;2.25;;;1.77;;
57461;SDS011;43308;47.306;8.608;2024-02-16T11:43:23;2.38;;;1.63;;
57461;SDS011;43308;47.306;8.608;2024-02-16T11:45:50;2.80;;;1.77;;
57461;SDS011;43308;47.306;8.608;2024-02-16T11:48:20;4.78;;;2.08;;
57461;SDS011;43308;47.306;8.608;2024-02-16T11:50:48;2.13;;;1.92;;
57461;SDS011;43308;47.306;8.608;2024-02-16T11:53:18;3.97;;;1.70;;
57461;SDS011;43308;47.306;8.608;2024-02-16T11:55:49;2.23;;;1.87;;
57461;SDS011;43308;47.306;8.608;2024-02-16T11:58:16;2.67;;;1.40;;
57461;SDS011;43308;47.306;8.608;2024-02-16T12:00:43;3.45;;;2.30;;
57461;SDS011;43308;47.306;8.608;2024-02-16T12:03:10;3.25;;;1.73;;
57461;SDS011;43308;47.306;8.608;2024-02-16T12:05:36;3.28;;;1.75;;
57461;SDS011;43308;47.306;8.608;2024-02-16T12:08:02;3.53;;;1.98;;
57461;SDS011;43308;47.306;8.608;2024-02-16T12:10:28;3.63;;;2.47;;
57461;SDS011;43308;47.306;8.608;2024-02-16T12:12:54;3.83;;;2.25;;
57461;SDS011;43308;47.306;8.608;2024-02-16T12:15:21;3.40;;;2.08;;
57461;SDS011;43308;47.306;8.608;2024-02-16T12:17:57;5.78;;;2.28;;
57461;SDS011;43308;47.306;8.608;2024-02-16T12:20:25;2.47;;;2.08;;
57461;SDS011;43308;47.306;8.608;2024-02-16T12:22:51;2.55;;;2.28;;
57461;SDS011;43308;47.306;8.608;2024-02-16T12:25:17;3.50;;;2.90;;
57461;SDS011;43308;47.306;8.608;2024-02-16T12:27:42;9.65;;;2.30;;
57461;SDS011;43308;47.306;8.608;2024-02-16T12:30:08;3.83;;;2.13;;
57461;SDS011;43308;47.306;8.608;2024-02-16T12:32:34;2.53;;;1.88;;
57461;SDS011;43308;47.306;8.608;2024-02-16T12:35:00;7.70;;;1.95;;
57461;SDS011;43308;47.306;8.608;2024-02-16T12:37:27;4.30;;;2.38;;
57461;SDS011;43308;47.306;8.608;2024-02-16T12:39:53;5.63;;;1.80;;
57461;SDS011;43308;47.306;8.608;2024-02-16T12:42:18;3.45;;;1.73;;
57461;SDS011;43308;47.306;8.608;2024-02-16T12:44:44;3.30;;;1.40;;
57461;SDS011;43308;47.306;8.608;2024-02-16T12:47:11;8.02;;;2.05;;
57461;SDS011;43308;47.306;8.608;2024-02-16T12:49:37;4.70;;;1.80;;
57461;SDS011;43308;47.306;8.608;2024-02-16T12:52:02;4.53;;;1.95;;
57461;SDS011;43308;47.306;8.608;2024-02-16T12:54:28;4.10;;;1.70;;
57461;SDS011;43308;47.306;8.608;2024-02-16T12:56:54;4.00;;;1.90;;
57461;SDS011;43308;47.306;8.608;2024-02-16T12:59:20;2.80;;;1.52;;
57461;SDS011;43308;47.306;8.608;2024-02-16T13:01:46;5.63;;;1.92;;
57461;SDS011;43308;47.306;8.608;2024-02-16T13:04:12;9.27;;;3.15;;
57461;SDS011;43308;47.306;8.608;2024-02-16T13:06:46;5.53;;;2.28;;
57461;SDS011;43308;47.306;8.608;2024-02-16T13:09:12;3.35;;;1.80;;
57461;SDS011;43308;47.306;8.608;2024-02-16T13:11:38;2.72;;;1.60;;
57461;SDS011;43308;47.306;8.608;2024-02-16T13:14:06;4.60;;;1.90;;
57461;SDS011;43308;47.306;8.608;2024-02-16T13:16:32;3.78;;;1.73;;
57461;SDS011;43308;47.306;8.608;2024-02-16T13:18:58;4.82;;;1.88;;
57461;SDS011;43308;47.306;8.608;2024-02-16T13:21:23;4.18;;;2.35;;
57461;SDS011;43308;47.306;8.608;2024-02-16T13:23:49;4.55;;;1.75;;
57461;SDS011;43308;47.306;8.608;2024-02-16T13:26:17;3.80;;;1.40;;
57461;SDS011;43308;47.306;8.608;2024-02-16T13:28:43;4.63;;;1.63;;
57461;SDS011;43308;47.306;8.608;2024-02-16T13:31:09;4.75;;;1.75;;
57461;SDS011;43308;47.306;8.608;2024-02-16T13:33:37;3.15;;;1.70;;
57461;SDS011;43308;47.306;8.608;2024-02-16T13:36:03;4.22;;;1.40;;
57461;SDS011;43308;47.306;8.608;2024-02-16T13:38:30;2.85;;;1.05;;
57461;SDS011;43308;47.306;8.608;2024-02-16T13:40:56;5.43;;;1.17;;
57461;SDS011;43308;47.306;8.608;2024-02-16T13:43:22;1.42;;;1.10;;
57461;SDS011;43308;47.306;8.608;2024-02-16T13:45:49;5.13;;;1.67;;
57461;SDS011;43308;47.306;8.608;2024-02-16T13:48:19;4.45;;;1.17;;
57461;SDS011;43308;47.306;8.608;2024-02-16T13:50:49;3.65;;;1.73;;
57461;SDS011;43308;47.306;8.608;2024-02-16T13:53:19;2.53;;;1.58;;
57461;SDS011;43308;47.306;8.608;2024-02-16T13:55:48;5.07;;;0.90;;
57461;SDS011;43308;47.306;8.608;2024-02-16T13:58:14;3.58;;;1.13;;
57461;SDS011;43308;47.306;8.608;2024-02-16T14:00:40;1.90;;;1.02;;
57461;SDS011;43308;47.306;8.608;2024-02-16T14:03:07;2.20;;;0.88;;
57461;SDS011;43308;47.306;8.608;2024-02-16T14:05:38;3.70;;;1.10;;
57461;SDS011;43308;47.306;8.608;2024-02-16T14:08:07;3.53;;;1.10;;
57461;SDS011;43308;47.306;8.608;2024-02-16T14:10:35;3.90;;;1.13;;
57461;SDS011;43308;47.306;8.608;2024-02-16T14:13:01;3.53;;;0.70;;
57461;SDS011;43308;47.306;8.608;2024-02-16T14:15:30;2.42;;;0.82;;
57461;SDS011;43308;47.306;8.608;2024-02-16T14:17:56;2.72;;;0.90;;
57461;SDS011;43308;47.306;8.608;2024-02-16T14:20:22;2.35;;;0.95;;
57461;SDS011;43308;47.306;8.608;2024-02-16T14:22:49;2.80;;;1.08;;
57461;SDS011;43308;47.306;8.608;2024-02-16T14:25:15;1.52;;;0.70;;
57461;SDS011;43308;47.306;8.608;2024-02-16T14:27:41;2.80;;;1.38;;
57461;SDS011;43308;47.306;8.608;2024-02-16T14:30:11;3.58;;;0.95;;
57461;SDS011;43308;47.306;8.608;2024-02-16T14:32:37;2.88;;;0.80;;
57461;SDS011;43308;47.306;8.608;2024-02-16T14:35:04;1.23;;;0.60;;
57461;SDS011;43308;47.306;8.608;2024-02-16T14:37:31;4.13;;;0.75;;
57461;SDS011;43308;47.306;8.608;2024-02-16T14:39:58;2.00;;;0.80;;
57461;SDS011;43308;47.306;8.608;2024-02-16T14:42:25;3.85;;;0.68;;
57461;SDS011;43308;47.306;8.608;2024-02-16T14:44:52;2.05;;;0.90;;